Terminal Aerodrome Forecast
Issued by NWS Huntsville, AL

Home | Current Version | Previous Version | Text Only | Print | Product List | Glossary On
Versions: 1 2 3 4 5 6 7 8 9 10 11 12 13 14 15
000
FTUS44 KHUN 282320
TAFMSL
TAF
KMSL 282320Z 2900/2924 17012G20KT P6SM OVC050
     FM290300 15012KT P6SM SCT015 OVC070
     FM291000 15013KT P6SM BKN015
     FM291400 17014G22KT P6SM SCT050=

USA.gov is the U.S. government's official web portal to all federal, state and local government web resources and services.